sensor_id;sensor_type;location;lat;lon;timestamp;temperature;humidity
4079;DHT22;2054;47.858;11.156;2024-01-25T03:46:03;7.90;99.90
4079;DHT22;2054;47.858;11.156;2024-01-25T03:48:31;7.90;99.90
4079;DHT22;2054;47.858;11.156;2024-01-25T03:50:59;7.90;99.90
4079;DHT22;2054;47.858;11.156;2024-01-25T03:53:25;7.90;99.90
4079;DHT22;2054;47.858;11.156;2024-01-25T03:55:51;7.90;99.90
4079;DHT22;2054;47.858;11.156;2024-01-25T03:58:18;8.00;99.90
4079;DHT22;2054;47.858;11.156;2024-01-25T04:00:47;7.90;99.90
4079;DHT22;2054;47.858;11.156;2024-01-25T04:03:15;7.90;99.90
4079;DHT22;2054;47.858;11.156;2024-01-25T04:05:42;7.90;99.90
4079;DHT22;2054;47.858;11.156;2024-01-25T04:08:10;7.90;99.90
4079;DHT22;2054;47.858;11.156;2024-01-25T04:10:37;8.00;99.90
4079;DHT22;2054;47.858;11.156;2024-01-25T04:13:04;8.00;99.90
4079;DHT22;2054;47.858;11.156;2024-01-25T04:15:32;8.00;99.90
4079;DHT22;2054;47.858;11.156;2024-01-25T04:17:59;8.20;99.90
4079;DHT22;2054;47.858;11.156;2024-01-25T04:20:27;8.20;99.90
4079;DHT22;2054;47.858;11.156;2024-01-25T04:22:54;8.10;99.90
4079;DHT22;2054;47.858;11.156;2024-01-25T04:25:21;8.10;99.90
4079;DHT22;2054;47.858;11.156;2024-01-25T04:27:48;8.20;99.90
4079;DHT22;2054;47.858;11.156;2024-01-25T04:30:16;8.10;99.90
4079;DHT22;2054;47.858;11.156;2024-01-25T04:32:43;8.10;99.90
4079;DHT22;2054;47.858;11.156;2024-01-25T04:35:10;8.10;99.90
4079;DHT22;2054;47.858;11.156;2024-01-25T04:37:39;8.20;99.90
4079;DHT22;2054;47.858;11.156;2024-01-25T04:40:07;8.00;99.90
4079;DHT22;2054;47.858;11.156;2024-01-25T04:42:34;8.00;99.90
4079;DHT22;2054;47.858;11.156;2024-01-25T04:45:01;8.00;99.90
4079;DHT22;2054;47.858;11.156;2024-01-25T04:47:29;8.00;99.90
4079;DHT22;2054;47.858;11.156;2024-01-25T04:49:56;7.90;99.90
4079;DHT22;2054;47.858;11.156;2024-01-25T04:52:25;7.90;99.90
4079;DHT22;2054;47.858;11.156;2024-01-25T04:54:54;7.90;99.90
4079;DHT22;2054;47.858;11.156;2024-01-25T04:57:21;7.90;99.90
4079;DHT22;2054;47.858;11.156;2024-01-25T04:59:48;8.30;99.90
4079;DHT22;2054;47.858;11.156;2024-01-25T05:02:14;7.90;99.90
4079;DHT22;2054;47.858;11.156;2024-01-25T05:04:41;7.90;99.90
4079;DHT22;2054;47.858;11.156;2024-01-25T05:07:08;7.90;99.90
4079;DHT22;2054;47.858;11.156;2024-01-25T05:09:36;7.90;99.90
4079;DHT22;2054;47.858;11.156;2024-01-25T05:12:07;7.90;99.90
4079;DHT22;2054;47.858;11.156;2024-01-25T05:14:34;7.90;99.90
4079;DHT22;2054;47.858;11.156;2024-01-25T05:17:01;8.00;99.90
4079;DHT22;2054;47.858;11.156;2024-01-25T05:19:28;7.90;99.90
4079;DHT22;2054;47.858;11.156;2024-01-25T05:21:55;7.90;99.90
4079;DHT22;2054;47.858;11.156;2024-01-25T05:24:22;7.90;99.90
4079;DHT22;2054;47.858;11.156;2024-01-25T05:26:49;7.80;99.90
4079;DHT22;2054;47.858;11.156;2024-01-25T05:29:19;7.80;99.90
4079;DHT22;2054;47.858;11.156;2024-01-25T05:31:46;7.90;99.90
4079;DHT22;2054;47.858;11.156;2024-01-25T05:34:14;7.90;99.90
4079;DHT22;2054;47.858;11.156;2024-01-25T05:36:41;8.00;99.90
4079;DHT22;2054;47.858;11.156;2024-01-25T05:39:09;8.00;99.90
4079;DHT22;2054;47.858;11.156;2024-01-25T05:41:37;7.90;99.90
4079;DHT22;2054;47.858;11.156;2024-01-25T05:44:05;7.90;99.90
4079;DHT22;2054;47.858;11.156;2024-01-25T05:46:34;8.30;99.90
4079;DHT22;2054;47.858;11.156;2024-01-25T05:49:01;7.90;99.90
4079;DHT22;2054;47.858;11.156;2024-01-25T05:51:28;8.00;99.90
4079;DHT22;2054;47.858;11.156;2024-01-25T05:53:55;8.00;99.90
4079;DHT22;2054;47.858;11.156;2024-01-25T05:56:22;8.10;99.90
4079;DHT22;2054;47.858;11.156;2024-01-25T05:58:52;8.20;99.90
4079;DHT22;2054;47.858;11.156;2024-01-25T06:01:19;8.10;99.90
4079;DHT22;2054;47.858;11.156;2024-01-25T06:03:47;8.10;99.90
4079;DHT22;2054;47.858;11.156;2024-01-25T06:06:14;8.10;99.90
4079;DHT22;2054;47.858;11.156;2024-01-25T06:08:41;8.10;99.90
4079;DHT22;2054;47.858;11.156;2024-01-25T06:11:08;8.10;99.90
4079;DHT22;2054;47.858;11.156;2024-01-25T06:13:37;8.10;99.90
4079;DHT22;2054;47.858;11.156;2024-01-25T06:16:04;8.10;99.90
4079;DHT22;2054;47.858;11.156;2024-01-25T06:18:31;8.10;99.90
4079;DHT22;2054;47.858;11.156;2024-01-25T06:20:59;8.10;99.90
4079;DHT22;2054;47.858;11.156;2024-01-25T06:23:26;8.10;99.90
4079;DHT22;2054;47.858;11.156;2024-01-25T06:25:53;8.10;99.90
4079;DHT22;2054;47.858;11.156;2024-01-25T06:28:21;8.20;99.90
4079;DHT22;2054;47.858;11.156;2024-01-25T06:30:48;8.20;99.90
4079;DHT22;2054;47.858;11.156;2024-01-25T06:33:15;8.30;99.90
4079;DHT22;2054;47.858;11.156;2024-01-25T06:35:43;8.30;99.90
4079;DHT22;2054;47.858;11.156;2024-01-25T06:38:11;8.20;99.90
4079;DHT22;2054;47.858;11.156;2024-01-25T06:40:38;8.20;99.90
4079;DHT22;2054;47.858;11.156;2024-01-25T06:43:05;8.40;99.90
4079;DHT22;2054;47.858;11.156;2024-01-25T06:45:32;8.10;99.90
4079;DHT22;2054;47.858;11.156;2024-01-25T06:47:59;8.10;99.90
4079;DHT22;2054;47.858;11.156;2024-01-25T06:50:29;8.10;99.90
4079;DHT22;2054;47.858;11.156;2024-01-25T06:52:55;8.30;99.90
4079;DHT22;2054;47.858;11.156;2024-01-25T06:55:24;8.10;99.90
4079;DHT22;2054;47.858;11.156;2024-01-25T06:57:51;8.20;99.90
4079;DHT22;2054;47.858;11.156;2024-01-25T07:00:18;8.20;99.90
4079;DHT22;2054;47.858;11.156;2024-01-25T07:02:52;8.20;99.90
4079;DHT22;2054;47.858;11.156;2024-01-25T07:05:21;8.20;99.90
4079;DHT22;2054;47.858;11.156;2024-01-25T07:07:48;8.20;99.90
4079;DHT22;2054;47.858;11.156;2024-01-25T07:10:15;8.50;99.90
4079;DHT22;2054;47.858;11.156;2024-01-25T07:12:43;8.20;99.90
4079;DHT22;2054;47.858;11.156;2024-01-25T07:15:10;8.40;99.90
4079;DHT22;2054;47.858;11.156;2024-01-25T07:17:37;8.20;99.90
4079;DHT22;2054;47.858;11.156;2024-01-25T07:20:05;8.20;99.90
4079;DHT22;2054;47.858;11.156;2024-01-25T07:22:33;8.20;99.90
4079;DHT22;2054;47.858;11.156;2024-01-25T07:25:00;8.20;99.90
4079;DHT22;2054;47.858;11.156;2024-01-25T07:27:28;8.20;99.90
4079;DHT22;2054;47.858;11.156;2024-01-25T07:30:01;8.10;99.90
4079;DHT22;2054;47.858;11.156;2024-01-25T07:32:27;8.10;99.90
4079;DHT22;2054;47.858;11.156;2024-01-25T07:34:56;8.20;99.90
4079;DHT22;2054;47.858;11.156;2024-01-25T07:37:23;8.30;99.90
4079;DHT22;2054;47.858;11.156;2024-01-25T07:39:51;8.70;99.90
4079;DHT22;2054;47.858;11.156;2024-01-25T07:42:18;8.30;99.90
4079;DHT22;2054;47.858;11.156;2024-01-25T07:44:44;8.20;99.90
4079;DHT22;2054;47.858;11.156;2024-01-25T07:47:13;8.20;99.90
4079;DHT22;2054;47.858;11.156;2024-01-25T07:49:41;8.20;99.90
4079;DHT22;2054;47.858;11.156;2024-01-25T07:52:11;8.20;99.90
4079;DHT22;2054;47.858;11.156;2024-01-25T07:54:39;7.50;99.90
4079;DHT22;2054;47.858;11.156;2024-01-25T07:57:05;8.10;99.90
4079;DHT22;2054;47.858;11.156;2024-01-25T07:59:35;8.40;99.90
4079;DHT22;2054;47.858;11.156;2024-01-25T08:02:02;8.00;99.90
4079;DHT22;2054;47.858;11.156;2024-01-25T08:04:32;8.00;99.90
4079;DHT22;2054;47.858;11.156;2024-01-25T08:06:59;8.00;99.90
4079;DHT22;2054;47.858;11.156;2024-01-25T08:09:26;8.00;99.90
4079;DHT22;2054;47.858;11.156;2024-01-25T08:11:53;8.00;99.90
4079;DHT22;2054;47.858;11.156;2024-01-25T08:14:20;8.00;99.90
4079;DHT22;2054;47.858;11.156;2024-01-25T08:16:47;8.20;99.90
4079;DHT22;2054;47.858;11.156;2024-01-25T08:19:16;8.20;99.90
4079;DHT22;2054;47.858;11.156;2024-01-25T08:21:45;8.20;99.90
4079;DHT22;2054;47.858;11.156;2024-01-25T08:24:13;8.20;99.90
4079;DHT22;2054;47.858;11.156;2024-01-25T08:26:41;8.20;99.90
4079;DHT22;2054;47.858;11.156;2024-01-25T08:29:08;8.30;99.90
4079;DHT22;2054;47.858;11.156;2024-01-25T08:31:36;8.30;99.90
4079;DHT22;2054;47.858;11.156;2024-01-25T08:34:03;8.30;99.90
4079;DHT22;2054;47.858;11.156;2024-01-25T08:36:30;8.30;99.90
4079;DHT22;2054;47.858;11.156;2024-01-25T08:38:58;8.40;99.90
4079;DHT22;2054;47.858;11.156;2024-01-25T08:41:27;8.20;99.90
4079;DHT22;2054;47.858;11.156;2024-01-25T08:43:57;8.20;99.90
4079;DHT22;2054;47.858;11.156;2024-01-25T08:46:24;8.20;99.90
4079;DHT22;2054;47.858;11.156;2024-01-25T08:48:51;8.40;99.90
4079;DHT22;2054;47.858;11.156;2024-01-25T08:51:18;8.50;99.90
4079;DHT22;2054;47.858;11.156;2024-01-25T08:53:46;8.60;99.90
4079;DHT22;2054;47.858;11.156;2024-01-25T08:56:17;8.40;99.90
4079;DHT22;2054;47.858;11.156;2024-01-25T08:58:44;8.20;99.90
4079;DHT22;2054;47.858;11.156;2024-01-25T09:01:13;8.10;99.90
4079;DHT22;2054;47.858;11.156;2024-01-25T09:03:40;8.10;99.90
4079;DHT22;2054;47.858;11.156;2024-01-25T09:06:07;8.20;99.90
4079;DHT22;2054;47.858;11.156;2024-01-25T09:08:34;8.60;99.90
4079;DHT22;2054;47.858;11.156;2024-01-25T09:11:02;8.40;99.90
4079;DHT22;2054;47.858;11.156;2024-01-25T09:13:33;8.60;99.90
4079;DHT22;2054;47.858;11.156;2024-01-25T09:16:00;8.70;99.90
4079;DHT22;2054;47.858;11.156;2024-01-25T09:18:27;8.90;99.90
4079;DHT22;2054;47.858;11.156;2024-01-25T09:20:54;8.90;99.90
4079;DHT22;2054;47.858;11.156;2024-01-25T09:23:21;9.20;99.90
4079;DHT22;2054;47.858;11.156;2024-01-25T09:25:48;9.20;99.90
4079;DHT22;2054;47.858;11.156;2024-01-25T09:28:17;8.80;99.90
4079;DHT22;2054;47.858;11.156;2024-01-25T09:30:45;8.90;99.90
4079;DHT22;2054;47.858;11.156;2024-01-25T09:33:14;8.90;99.90
4079;DHT22;2054;47.858;11.156;2024-01-25T09:35:41;8.90;99.90
4079;DHT22;2054;47.858;11.156;2024-01-25T09:38:12;8.80;99.90
4079;DHT22;2054;47.858;11.156;2024-01-25T09:40:39;8.70;99.90
4079;DHT22;2054;47.858;11.156;2024-01-25T09:43:06;8.80;99.90
4079;DHT22;2054;47.858;11.156;2024-01-25T09:45:33;8.60;99.90
4079;DHT22;2054;47.858;11.156;2024-01-25T09:48:03;8.80;99.90
4079;DHT22;2054;47.858;11.156;2024-01-25T09:50:30;8.80;99.90
4079;DHT22;2054;47.858;11.156;2024-01-25T09:53:00;8.90;99.90
4079;DHT22;2054;47.858;11.156;2024-01-25T09:55:27;9.10;99.90
4079;DHT22;2054;47.858;11.156;2024-01-25T09:57:54;8.80;99.90
4079;DHT22;2054;47.858;11.156;2024-01-25T10:00:24;8.80;99.90
4079;DHT22;2054;47.858;11.156;2024-01-25T10:02:52;8.90;99.90
4079;DHT22;2054;47.858;11.156;2024-01-25T10:05:21;8.80;99.90
4079;DHT22;2054;47.858;11.156;2024-01-25T10:07:48;9.00;99.90
4079;DHT22;2054;47.858;11.156;2024-01-25T10:10:16;8.80;99.90
4079;DHT22;2054;47.858;11.156;2024-01-25T10:12:49;8.80;99.90
4079;DHT22;2054;47.858;11.156;2024-01-25T10:15:16;8.70;99.90
4079;DHT22;2054;47.858;11.156;2024-01-25T10:17:44;8.70;99.90
4079;DHT22;2054;47.858;11.156;2024-01-25T10:20:14;8.90;99.90
4079;DHT22;2054;47.858;11.156;2024-01-25T10:22:43;8.70;99.90
4079;DHT22;2054;47.858;11.156;2024-01-25T10:25:12;8.70;99.90
4079;DHT22;2054;47.858;11.156;2024-01-25T10:27:41;9.00;99.90
4079;DHT22;2054;47.858;11.156;2024-01-25T10:30:11;9.00;99.90
4079;DHT22;2054;47.858;11.156;2024-01-25T10:32:40;9.00;99.90
4079;DHT22;2054;47.858;11.156;2024-01-25T10:35:09;9.40;99.90
4079;DHT22;2054;47.858;11.156;2024-01-25T10:37:39;8.80;99.90
4079;DHT22;2054;47.858;11.156;2024-01-25T10:40:10;8.70;99.90
4079;DHT22;2054;47.858;11.156;2024-01-25T10:42:37;9.00;99.90
4079;DHT22;2054;47.858;11.156;2024-01-25T10:45:07;9.20;99.90
4079;DHT22;2054;47.858;11.156;2024-01-25T10:47:36;9.30;99.90
4079;DHT22;2054;47.858;11.156;2024-01-25T10:50:07;9.40;99.90
4079;DHT22;2054;47.858;11.156;2024-01-25T10:52:36;9.50;99.90
4079;DHT22;2054;47.858;11.156;2024-01-25T10:55:03;9.60;99.90
4079;DHT22;2054;47.858;11.156;2024-01-25T10:57:36;9.80;99.90
4079;DHT22;2054;47.858;11.156;2024-01-25T11:00:06;9.80;99.90
4079;DHT22;2054;47.858;11.156;2024-01-25T11:02:39;9.60;99.90
4079;DHT22;2054;47.858;11.156;2024-01-25T11:05:12;9.60;99.90
4079;DHT22;2054;47.858;11.156;2024-01-25T11:07:42;9.70;99.90
4079;DHT22;2054;47.858;11.156;2024-01-25T11:10:16;9.70;99.90
4079;DHT22;2054;47.858;11.156;2024-01-25T11:12:54;9.70;99.90
4079;DHT22;2054;47.858;11.156;2024-01-25T11:15:22;9.50;99.90
4079;DHT22;2054;47.858;11.156;2024-01-25T11:17:53;9.50;99.90
4079;DHT22;2054;47.858;11.156;2024-01-25T11:20:22;9.60;99.90
4079;DHT22;2054;47.858;11.156;2024-01-25T11:22:56;9.60;99.90
4079;DHT22;2054;47.858;11.156;2024-01-25T11:25:23;9.80;99.90
4079;DHT22;2054;47.858;11.156;2024-01-25T11:27:55;10.00;99.90
4079;DHT22;2054;47.858;11.156;2024-01-25T11:30:23;10.00;99.90
4079;DHT22;2054;47.858;11.156;2024-01-25T11:32:50;10.10;99.90
4079;DHT22;2054;47.858;11.156;2024-01-25T11:35:18;10.30;99.90
4079;DHT22;2054;47.858;11.156;2024-01-25T11:37:45;10.50;99.90
4079;DHT22;2054;47.858;11.156;2024-01-25T11:40:16;10.60;99.90
4079;DHT22;2054;47.858;11.156;2024-01-25T11:42:43;10.70;99.90
4079;DHT22;2054;47.858;11.156;2024-01-25T11:45:18;10.60;99.90
4079;DHT22;2054;47.858;11.156;2024-01-25T11:47:45;10.40;99.90
4079;DHT22;2054;47.858;11.156;2024-01-25T11:50:13;10.50;99.90
4079;DHT22;2054;47.858;11.156;2024-01-25T11:52:41;10.50;99.90
4079;DHT22;2054;47.858;11.156;2024-01-25T11:55:10;10.60;99.90
4079;DHT22;2054;47.858;11.156;2024-01-25T11:57:40;10.60;99.90
4079;DHT22;2054;47.858;11.156;2024-01-25T12:00:08;10.60;99.90
4079;DHT22;2054;47.858;11.156;2024-01-25T12:02:38;10.40;99.90
4079;DHT22;2054;47.858;11.156;2024-01-25T12:05:10;10.20;99.90
4079;DHT22;2054;47.858;11.156;2024-01-25T12:07:39;10.10;99.90
4079;DHT22;2054;47.858;11.156;2024-01-25T12:10:07;10.20;99.90
4079;DHT22;2054;47.858;11.156;2024-01-25T12:12:35;10.40;99.90
4079;DHT22;2054;47.858;11.156;2024-01-25T12:15:06;10.50;99.90
4079;DHT22;2054;47.858;11.156;2024-01-25T12:17:34;10.50;99.90
4079;DHT22;2054;47.858;11.156;2024-01-25T12:20:04;10.30;99.90
4079;DHT22;2054;47.858;11.156;2024-01-25T12:22:36;10.40;99.90
4079;DHT22;2054;47.858;11.156;2024-01-25T12:25:07;10.40;99.90
4079;DHT22;2054;47.858;11.156;2024-01-25T12:27:34;10.40;99.90
4079;DHT22;2054;47.858;11.156;2024-01-25T12:30:06;10.40;99.90
4079;DHT22;2054;47.858;11.156;2024-01-25T12:32:34;10.30;99.90
4079;DHT22;2054;47.858;11.156;2024-01-25T12:35:03;10.10;99.90
4079;DHT22;2054;47.858;11.156;2024-01-25T12:37:31;10.10;99.90
4079;DHT22;2054;47.858;11.156;2024-01-25T12:40:00;10.00;99.90
4079;DHT22;2054;47.858;11.156;2024-01-25T12:42:28;10.10;99.90
4079;DHT22;2054;47.858;11.156;2024-01-25T12:44:54;9.90;99.90
4079;DHT22;2054;47.858;11.156;2024-01-25T12:47:21;10.20;99.90
4079;DHT22;2054;47.858;11.156;2024-01-25T12:49:48;9.90;99.90
4079;DHT22;2054;47.858;11.156;2024-01-25T12:52:18;10.00;99.90
4079;DHT22;2054;47.858;11.156;2024-01-25T12:54:45;10.10;99.90
4079;DHT22;2054;47.858;11.156;2024-01-25T12:57:12;10.30;99.90
4079;DHT22;2054;47.858;11.156;2024-01-25T12:59:39;10.50;99.90
4079;DHT22;2054;47.858;11.156;2024-01-25T13:02:07;10.60;99.90
4079;DHT22;2054;47.858;11.156;2024-01-25T13:04:34;10.70;99.90
4079;DHT22;2054;47.858;11.156;2024-01-25T13:07:01;10.80;99.90
4079;DHT22;2054;47.858;11.156;2024-01-25T13:09:29;10.70;99.90
4079;DHT22;2054;47.858;11.156;2024-01-25T13:11:59;10.70;99.90
4079;DHT22;2054;47.858;11.156;2024-01-25T13:14:27;10.50;99.90
4079;DHT22;2054;47.858;11.156;2024-01-25T13:16:54;10.30;99.90
4079;DHT22;2054;47.858;11.156;2024-01-25T13:19:21;10.30;99.90
4079;DHT22;2054;47.858;11.156;2024-01-25T13:21:48;10.30;99.90
4079;DHT22;2054;47.858;11.156;2024-01-25T13:24:15;10.30;99.90
4079;DHT22;2054;47.858;11.156;2024-01-25T13:26:43;10.40;99.90
4079;DHT22;2054;47.858;11.156;2024-01-25T13:29:10;10.50;99.90
4079;DHT22;2054;47.858;11.156;2024-01-25T13:31:38;10.60;99.90
4079;DHT22;2054;47.858;11.156;2024-01-25T13:34:07;10.50;99.90
4079;DHT22;2054;47.858;11.156;2024-01-25T13:36:34;10.40;99.90
4079;DHT22;2054;47.858;11.156;2024-01-25T13:39:01;10.30;99.90
4079;DHT22;2054;47.858;11.156;2024-01-25T13:41:29;10.20;99.90
4079;DHT22;2054;47.858;11.156;2024-01-25T13:43:57;10.30;99.90
4079;DHT22;2054;47.858;11.156;2024-01-25T13:46:24;10.30;99.90
4079;DHT22;2054;47.858;11.156;2024-01-25T13:48:51;10.20;99.90
4079;DHT22;2054;47.858;11.156;2024-01-25T13:51:18;10.40;99.90
4079;DHT22;2054;47.858;11.156;2024-01-25T13:53:45;10.60;99.90
4079;DHT22;2054;47.858;11.156;2024-01-25T13:56:16;10.50;99.90
4079;DHT22;2054;47.858;11.156;2024-01-25T13:58:43;10.50;99.90
4079;DHT22;2054;47.858;11.156;2024-01-25T14:01:11;10.50;99.90
4079;DHT22;2054;47.858;11.156;2024-01-25T14:03:38;10.50;99.90
4079;DHT22;2054;47.858;11.156;2024-01-25T14:06:05;10.50;99.90
4079;DHT22;2054;47.858;11.156;2024-01-25T14:08:35;10.40;99.90
4079;DHT22;2054;47.858;11.156;2024-01-25T14:11:03;10.40;99.90
4079;DHT22;2054;47.858;11.156;2024-01-25T14:13:31;10.50;99.90
4079;DHT22;2054;47.858;11.156;2024-01-25T14:15:58;10.50;99.90
4079;DHT22;2054;47.858;11.156;2024-01-25T14:18:27;10.50;99.90
4079;DHT22;2054;47.858;11.156;2024-01-25T14:20:56;10.90;99.90
4079;DHT22;2054;47.858;11.156;2024-01-25T14:23:23;10.60;99.90
4079;DHT22;2054;47.858;11.156;2024-01-25T14:25:50;10.50;99.90
4079;DHT22;2054;47.858;11.156;2024-01-25T14:28:17;10.40;99.90
4079;DHT22;2054;47.858;11.156;2024-01-25T14:30:44;10.20;99.90
4079;DHT22;2054;47.858;11.156;2024-01-25T14:33:11;10.20;99.90
4079;DHT22;2054;47.858;11.156;2024-01-25T14:35:40;10.30;99.90
4079;DHT22;2054;47.858;11.156;2024-01-25T14:38:07;10.40;99.90
4079;DHT22;2054;47.858;11.156;2024-01-25T14:40:34;10.50;99.90
4079;DHT22;2054;47.858;11.156;2024-01-25T14:43:01;10.40;99.90
4079;DHT22;2054;47.858;11.156;2024-01-25T14:45:28;10.20;99.90
4079;DHT22;2054;47.858;11.156;2024-01-25T14:47:55;10.20;99.90
4079;DHT22;2054;47.858;11.156;2024-01-25T14:50:23;10.20;99.90
4079;DHT22;2054;47.858;11.156;2024-01-25T14:52:52;10.20;99.90
4079;DHT22;2054;47.858;11.156;2024-01-25T14:55:19;10.00;99.90
4079;DHT22;2054;47.858;11.156;2024-01-25T14:57:46;10.00;99.90
4079;DHT22;2054;47.858;11.156;2024-01-25T15:00:14;10.00;99.90
4079;DHT22;2054;47.858;11.156;2024-01-25T15:02:45;10.00;99.90
4079;DHT22;2054;47.858;11.156;2024-01-25T15:05:12;9.90;99.90
4079;DHT22;2054;47.858;11.156;2024-01-25T15:07:39;9.90;99.90
4079;DHT22;2054;47.858;11.156;2024-01-25T15:10:09;9.80;99.90
4079;DHT22;2054;47.858;11.156;2024-01-25T15:12:38;9.90;99.90
4079;DHT22;2054;47.858;11.156;2024-01-25T15:15:06;9.80;99.90
4079;DHT22;2054;47.858;11.156;2024-01-25T15:17:33;9.60;99.90
4079;DHT22;2054;47.858;11.156;2024-01-25T15:20:00;9.50;99.90
4079;DHT22;2054;47.858;11.156;2024-01-25T15:22:27;9.90;99.90
4079;DHT22;2054;47.858;11.156;2024-01-25T15:24:56;9.50;99.90
4079;DHT22;2054;47.858;11.156;2024-01-25T15:27:25;9.40;99.90
4079;DHT22;2054;47.858;11.156;2024-01-25T15:29:52;9.60;99.90
4079;DHT22;2054;47.858;11.156;2024-01-25T15:32:19;9.40;99.90
4079;DHT22;2054;47.858;11.156;2024-01-25T15:34:47;9.40;99.90
4079;DHT22;2054;47.858;11.156;2024-01-25T15:37:14;9.30;99.90
4079;DHT22;2054;47.858;11.156;2024-01-25T15:39:41;9.30;99.90
4079;DHT22;2054;47.858;11.156;2024-01-25T15:42:10;9.30;99.90
4079;DHT22;2054;47.858;11.156;2024-01-25T15:44:40;9.20;99.90
4079;DHT22;2054;47.858;11.156;2024-01-25T15:47:07;9.10;99.90
4079;DHT22;2054;47.858;11.156;2024-01-25T15:49:34;9.10;99.90
4079;DHT22;2054;47.858;11.156;2024-01-25T15:52:01;9.10;99.90
4079;DHT22;2054;47.858;11.156;2024-01-25T15:54:28;9.10;99.90
4079;DHT22;2054;47.858;11.156;2024-01-25T15:56:55;9.00;99.90
4079;DHT22;2054;47.858;11.156;2024-01-25T15:59:23;8.90;99.90
4079;DHT22;2054;47.858;11.156;2024-01-25T16:01:51;8.90;99.90
4079;DHT22;2054;47.858;11.156;2024-01-25T16:04:18;8.80;99.90
4079;DHT22;2054;47.858;11.156;2024-01-25T16:06:45;8.70;99.90
4079;DHT22;2054;47.858;11.156;2024-01-25T16:09:12;9.00;99.90
4079;DHT22;2054;47.858;11.156;2024-01-25T16:11:39;8.60;99.90
4079;DHT22;2054;47.858;11.156;2024-01-25T16:14:06;8.60;99.90
4079;DHT22;2054;47.858;11.156;2024-01-25T16:16:33;8.70;99.90
4079;DHT22;2054;47.858;11.156;2024-01-25T16:19:02;8.60;99.90
4079;DHT22;2054;47.858;11.156;2024-01-25T16:21:29;8.70;99.90
4079;DHT22;2054;47.858;11.156;2024-01-25T16:23:55;8.70;99.90
4079;DHT22;2054;47.858;11.156;2024-01-25T16:26:24;8.70;99.90
4079;DHT22;2054;47.858;11.156;2024-01-25T16:28:51;8.70;99.90
4079;DHT22;2054;47.858;11.156;2024-01-25T16:31:18;8.70;99.90
4079;DHT22;2054;47.858;11.156;2024-01-25T16:33:47;8.70;99.90
4079;DHT22;2054;47.858;11.156;2024-01-25T16:36:15;8.80;99.90
4079;DHT22;2054;47.858;11.156;2024-01-25T16:38:42;8.70;99.90
4079;DHT22;2054;47.858;11.156;2024-01-25T16:41:10;8.70;99.90
4079;DHT22;2054;47.858;11.156;2024-01-25T16:43:36;8.80;99.90
4079;DHT22;2054;47.858;11.156;2024-01-25T16:46:05;8.60;99.90
4079;DHT22;2054;47.858;11.156;2024-01-25T16:48:32;8.70;99.90
4079;DHT22;2054;47.858;11.156;2024-01-25T16:51:00;8.70;99.90
4079;DHT22;2054;47.858;11.156;2024-01-25T16:53:31;9.00;99.90
4079;DHT22;2054;47.858;11.156;2024-01-25T16:55:58;8.70;99.90
4079;DHT22;2054;47.858;11.156;2024-01-25T16:58:25;8.70;99.90
4079;DHT22;2054;47.858;11.156;2024-01-25T17:00:52;8.70;99.90
4079;DHT22;2054;47.858;11.156;2024-01-25T17:03:19;8.70;99.90
4079;DHT22;2054;47.858;11.156;2024-01-25T17:05:46;8.70;99.90
4079;DHT22;2054;47.858;11.156;2024-01-25T17:08:15;8.70;99.90
4079;DHT22;2054;47.858;11.156;2024-01-25T17:10:43;8.70;99.90
4079;DHT22;2054;47.858;11.156;2024-01-25T17:13:11;8.80;99.90
4079;DHT22;2054;47.858;11.156;2024-01-25T17:15:38;8.80;99.90
4079;DHT22;2054;47.858;11.156;2024-01-25T17:18:06;8.80;99.90
4079;DHT22;2054;47.858;11.156;2024-01-25T17:20:33;8.80;99.90
4079;DHT22;2054;47.858;11.156;2024-01-25T17:23:00;8.70;99.90
4079;DHT22;2054;47.858;11.156;2024-01-25T17:25:27;8.70;99.90
4079;DHT22;2054;47.858;11.156;2024-01-25T17:27:56;8.70;99.90
4079;DHT22;2054;47.858;11.156;2024-01-25T17:30:23;8.80;99.90
4079;DHT22;2054;47.858;11.156;2024-01-25T17:32:49;8.90;99.90
4079;DHT22;2054;47.858;11.156;2024-01-25T17:35:17;8.90;99.90
4079;DHT22;2054;47.858;11.156;2024-01-25T17:37:44;8.90;99.90
4079;DHT22;2054;47.858;11.156;2024-01-25T17:40:11;9.00;99.90
4079;DHT22;2054;47.858;11.156;2024-01-25T17:42:38;9.10;99.90
4079;DHT22;2054;47.858;11.156;2024-01-25T17:45:09;9.10;99.90
4079;DHT22;2054;47.858;11.156;2024-01-25T17:47:36;9.20;99.90
4079;DHT22;2054;47.858;11.156;2024-01-25T17:50:04;9.20;99.90
4079;DHT22;2054;47.858;11.156;2024-01-25T17:52:34;9.30;99.90
4079;DHT22;2054;47.858;11.156;2024-01-25T17:55:02;9.30;99.90
4079;DHT22;2054;47.858;11.156;2024-01-25T17:57:30;9.20;99.90
4079;DHT22;2054;47.858;11.156;2024-01-25T18:00:01;9.20;99.90
4079;DHT22;2054;47.858;11.156;2024-01-25T18:02:33;9.20;99.90
4079;DHT22;2054;47.858;11.156;2024-01-25T18:05:00;9.20;99.90
4079;DHT22;2054;47.858;11.156;2024-01-25T18:07:27;9.10;99.90
4079;DHT22;2054;47.858;11.156;2024-01-25T18:09:54;9.10;99.90
4079;DHT22;2054;47.858;11.156;2024-01-25T18:12:21;9.10;99.90
4079;DHT22;2054;47.858;11.156;2024-01-25T18:14:48;9.10;99.90
4079;DHT22;2054;47.858;11.156;2024-01-25T18:17:15;9.10;99.90
4079;DHT22;2054;47.858;11.156;2024-01-25T18:19:44;9.00;99.90
4079;DHT22;2054;47.858;11.156;2024-01-25T18:22:11;9.40;99.90
4079;DHT22;2054;47.858;11.156;2024-01-25T18:24:38;9.00;99.90
4079;DHT22;2054;47.858;11.156;2024-01-25T18:27:05;9.10;99.90
4079;DHT22;2054;47.858;11.156;2024-01-25T18:29:32;9.10;99.90
4079;DHT22;2054;47.858;11.156;2024-01-25T18:32:00;9.20;99.90
4079;DHT22;2054;47.858;11.156;2024-01-25T18:34:27;9.20;99.90
4079;DHT22;2054;47.858;11.156;2024-01-25T18:36:55;9.10;99.90
4079;DHT22;2054;47.858;11.156;2024-01-25T18:39:22;9.10;99.90
4079;DHT22;2054;47.858;11.156;2024-01-25T18:41:50;9.20;99.90
4079;DHT22;2054;47.858;11.156;2024-01-25T18:44:18;9.10;99.90
4079;DHT22;2054;47.858;11.156;2024-01-25T18:46:45;9.10;99.90
4079;DHT22;2054;47.858;11.156;2024-01-25T18:49:16;9.10;99.90
4079;DHT22;2054;47.858;11.156;2024-01-25T18:51:43;9.20;99.90
4079;DHT22;2054;47.858;11.156;2024-01-25T18:54:14;9.20;99.90
4079;DHT22;2054;47.858;11.156;2024-01-25T18:56:42;9.10;99.90
4079;DHT22;2054;47.858;11.156;2024-01-25T18:59:11;9.50;99.90
4079;DHT22;2054;47.858;11.156;2024-01-25T19:01:39;9.20;99.90
4079;DHT22;2054;47.858;11.156;2024-01-25T19:04:08;9.30;99.90
4079;DHT22;2054;47.858;11.156;2024-01-25T19:06:36;9.30;99.90
4079;DHT22;2054;47.858;11.156;2024-01-25T19:09:04;9.40;99.90
4079;DHT22;2054;47.858;11.156;2024-01-25T19:11:33;9.40;99.90
4079;DHT22;2054;47.858;11.156;2024-01-25T19:14:00;9.40;99.90
4079;DHT22;2054;47.858;11.156;2024-01-25T19:16:27;9.50;99.90
4079;DHT22;2054;47.858;11.156;2024-01-25T19:18:54;9.50;99.90
4079;DHT22;2054;47.858;11.156;2024-01-25T19:21:22;9.50;99.90
4079;DHT22;2054;47.858;11.156;2024-01-25T19:23:49;9.50;99.90
4079;DHT22;2054;47.858;11.156;2024-01-25T19:26:16;9.80;99.90
4079;DHT22;2054;47.858;11.156;2024-01-25T19:28:47;9.60;99.90
4079;DHT22;2054;47.858;11.156;2024-01-25T19:31:14;9.60;99.90
4079;DHT22;2054;47.858;11.156;2024-01-25T19:33:42;9.70;99.90
4079;DHT22;2054;47.858;11.156;2024-01-25T19:36:09;9.70;99.90
4079;DHT22;2054;47.858;11.156;2024-01-25T19:38:36;9.70;99.90
4079;DHT22;2054;47.858;11.156;2024-01-25T19:41:07;9.80;99.90
4079;DHT22;2054;47.858;11.156;2024-01-25T19:43:34;9.70;99.90
4079;DHT22;2054;47.858;11.156;2024-01-25T19:46:03;9.70;99.90